sensor_id;sensor_type;location;lat;lon;timestamp;pressure;altitude;pressure_sealevel;temperature;humidity
15678;BME280;7939;50.814;6.368;2023-07-24T00:02:20;98944.16;;;22.74;59.54
15678;BME280;7939;50.814;6.368;2023-07-24T00:04:48;98936.34;;;22.74;59.62
15678;BME280;7939;50.814;6.368;2023-07-24T00:07:15;98936.44;;;22.72;59.59
15678;BME280;7939;50.814;6.368;2023-07-24T00:09:41;98937.28;;;22.73;59.80
15678;BME280;7939;50.814;6.368;2023-07-24T00:12:08;98934.78;;;22.71;59.87
15678;BME280;7939;50.814;6.368;2023-07-24T00:14:35;98926.22;;;22.69;59.90
15678;BME280;7939;50.814;6.368;2023-07-24T00:17:01;98927.06;;;22.70;59.88
15678;BME280;7939;50.814;6.368;2023-07-24T00:19:28;98926.13;;;22.71;59.40
15678;BME280;7939;50.814;6.368;2023-07-24T00:21:56;98925.28;;;22.70;59.69
15678;BME280;7939;50.814;6.368;2023-07-24T00:24:22;98929.69;;;22.70;59.73
15678;BME280;7939;50.814;6.368;2023-07-24T00:26:49;98924.53;;;22.68;59.89
15678;BME280;7939;50.814;6.368;2023-07-24T00:29:15;98913.28;;;22.68;59.80
15678;BME280;7939;50.814;6.368;2023-07-24T00:31:42;98920.25;;;22.67;59.60
15678;BME280;7939;50.814;6.368;2023-07-24T00:34:08;98920.38;;;22.66;59.45
15678;BME280;7939;50.814;6.368;2023-07-24T00:36:35;98910.78;;;22.66;59.91
15678;BME280;7939;50.814;6.368;2023-07-24T00:39:03;98906.31;;;22.68;59.67
15678;BME280;7939;50.814;6.368;2023-07-24T00:41:29;98902.03;;;22.67;59.44
15678;BME280;7939;50.814;6.368;2023-07-24T00:43:56;98907.44;;;22.64;59.67
15678;BME280;7939;50.814;6.368;2023-07-24T00:46:23;98894.50;;;22.62;59.73
15678;BME280;7939;50.814;6.368;2023-07-24T00:48:50;98888.47;;;22.62;60.00
15678;BME280;7939;50.814;6.368;2023-07-24T00:51:17;98890.22;;;22.61;59.62
15678;BME280;7939;50.814;6.368;2023-07-24T00:53:44;98883.25;;;22.62;59.60
15678;BME280;7939;50.814;6.368;2023-07-24T00:56:14;98879.81;;;22.61;59.74
15678;BME280;7939;50.814;6.368;2023-07-24T00:58:41;98888.47;;;22.62;59.46
15678;BME280;7939;50.814;6.368;2023-07-24T01:01:07;98880.66;;;22.62;59.54
15678;BME280;7939;50.814;6.368;2023-07-24T01:03:36;98875.53;;;22.60;59.54
15678;BME280;7939;50.814;6.368;2023-07-24T01:06:03;98868.56;;;22.61;59.21
15678;BME280;7939;50.814;6.368;2023-07-24T01:08:30;98860.84;;;22.59;59.31
15678;BME280;7939;50.814;6.368;2023-07-24T01:11:01;98862.63;;;22.59;59.17
15678;BME280;7939;50.814;6.368;2023-07-24T01:13:32;98860.97;;;22.58;59.18
15678;BME280;7939;50.814;6.368;2023-07-24T01:16:07;98855.75;;;22.58;59.35
15678;BME280;7939;50.814;6.368;2023-07-24T01:18:36;98846.28;;;22.57;59.35
15678;BME280;7939;50.814;6.368;2023-07-24T01:21:08;98848.97;;;22.55;59.17
15678;BME280;7939;50.814;6.368;2023-07-24T01:23:43;98842.81;;;22.56;59.23
15678;BME280;7939;50.814;6.368;2023-07-24T01:26:12;98849.78;;;22.56;59.30
15678;BME280;7939;50.814;6.368;2023-07-24T01:28:40;98848.97;;;22.55;59.11
15678;BME280;7939;50.814;6.368;2023-07-24T01:31:06;98845.53;;;22.55;59.34
15678;BME280;7939;50.814;6.368;2023-07-24T01:33:33;98838.75;;;22.52;59.21
15678;BME280;7939;50.814;6.368;2023-07-24T01:36:02;98823.97;;;22.53;59.33
15678;BME280;7939;50.814;6.368;2023-07-24T01:38:31;98830.00;;;22.53;59.28
15678;BME280;7939;50.814;6.368;2023-07-24T01:40:58;98837.91;;;22.52;59.46
15678;BME280;7939;50.814;6.368;2023-07-24T01:43:30;98836.25;;;22.51;59.50
15678;BME280;7939;50.814;6.368;2023-07-24T01:45:57;98831.88;;;22.51;59.43
15678;BME280;7939;50.814;6.368;2023-07-24T01:48:24;98833.53;;;22.52;59.15
15678;BME280;7939;50.814;6.368;2023-07-24T01:50:50;98826.75;;;22.50;59.54
15678;BME280;7939;50.814;6.368;2023-07-24T01:53:17;98817.19;;;22.50;59.13
15678;BME280;7939;50.814;6.368;2023-07-24T01:55:44;98814.59;;;22.50;59.39
15678;BME280;7939;50.814;6.368;2023-07-24T01:58:10;98812.81;;;22.51;59.22
15678;BME280;7939;50.814;6.368;2023-07-24T02:00:38;98801.56;;;22.50;59.40
15678;BME280;7939;50.814;6.368;2023-07-24T02:03:05;98793.66;;;22.52;59.58
15678;BME280;7939;50.814;6.368;2023-07-24T02:05:31;98792.00;;;22.51;59.75
15678;BME280;7939;50.814;6.368;2023-07-24T02:07:58;98795.44;;;22.51;59.86
15678;BME280;7939;50.814;6.368;2023-07-24T02:10:24;98795.50;;;22.50;59.80
15678;BME280;7939;50.814;6.368;2023-07-24T02:12:51;98797.19;;;22.51;59.80
15678;BME280;7939;50.814;6.368;2023-07-24T02:15:18;98792.00;;;22.51;59.83
15678;BME280;7939;50.814;6.368;2023-07-24T02:17:45;98805.09;;;22.49;59.86
15678;BME280;7939;50.814;6.368;2023-07-24T02:20:12;98798.09;;;22.50;59.93
15678;BME280;7939;50.814;6.368;2023-07-24T02:22:39;98799.03;;;22.49;59.75
15678;BME280;7939;50.814;6.368;2023-07-24T02:25:06;98794.66;;;22.49;60.04
15678;BME280;7939;50.814;6.368;2023-07-24T02:27:32;98777.38;;;22.48;59.99
15678;BME280;7939;50.814;6.368;2023-07-24T02:30:00;98761.66;;;22.50;59.99
15678;BME280;7939;50.814;6.368;2023-07-24T02:32:27;98762.59;;;22.49;59.80
15678;BME280;7939;50.814;6.368;2023-07-24T02:34:55;98765.19;;;22.49;60.06
15678;BME280;7939;50.814;6.368;2023-07-24T02:37:22;98771.34;;;22.48;59.78
15678;BME280;7939;50.814;6.368;2023-07-24T02:39:48;98768.75;;;22.48;60.11
15678;BME280;7939;50.814;6.368;2023-07-24T02:42:15;98778.31;;;22.47;60.13
15678;BME280;7939;50.814;6.368;2023-07-24T02:44:41;98765.31;;;22.47;59.91
15678;BME280;7939;50.814;6.368;2023-07-24T02:47:08;98763.63;;;22.46;59.83
15678;BME280;7939;50.814;6.368;2023-07-24T02:49:34;98764.47;;;22.47;60.09
15678;BME280;7939;50.814;6.368;2023-07-24T02:52:03;98763.53;;;22.48;60.01
15678;BME280;7939;50.814;6.368;2023-07-24T02:54:30;98759.38;;;22.45;59.81
15678;BME280;7939;50.814;6.368;2023-07-24T02:56:56;98760.19;;;22.46;59.77
15678;BME280;7939;50.814;6.368;2023-07-24T02:59:23;98768.84;;;22.46;59.62
15678;BME280;7939;50.814;6.368;2023-07-24T03:01:49;98765.50;;;22.44;59.73
15678;BME280;7939;50.814;6.368;2023-07-24T03:04:16;98762.91;;;22.44;59.30
15678;BME280;7939;50.814;6.368;2023-07-24T03:06:43;98762.03;;;22.44;59.78
15678;BME280;7939;50.814;6.368;2023-07-24T03:09:11;98760.31;;;22.44;60.02
15678;BME280;7939;50.814;6.368;2023-07-24T03:11:37;98758.63;;;22.43;59.69
15678;BME280;7939;50.814;6.368;2023-07-24T03:14:04;98754.34;;;22.42;59.80
15678;BME280;7939;50.814;6.368;2023-07-24T03:16:31;98763.81;;;22.43;59.94
15678;BME280;7939;50.814;6.368;2023-07-24T03:18:57;98774.34;;;22.42;59.74
15678;BME280;7939;50.814;6.368;2023-07-24T03:21:24;98768.31;;;22.41;60.00
15678;BME280;7939;50.814;6.368;2023-07-24T03:23:51;98770.06;;;22.41;60.04
15678;BME280;7939;50.814;6.368;2023-07-24T03:26:19;98782.25;;;22.40;59.90
15678;BME280;7939;50.814;6.368;2023-07-24T03:28:45;98788.41;;;22.39;59.76
15678;BME280;7939;50.814;6.368;2023-07-24T03:31:12;98784.97;;;22.39;59.84
15678;BME280;7939;50.814;6.368;2023-07-24T03:33:39;98766.00;;;22.37;59.98
15678;BME280;7939;50.814;6.368;2023-07-24T03:36:06;98765.16;;;22.36;60.15
15678;BME280;7939;50.814;6.368;2023-07-24T03:38:32;98758.28;;;22.35;60.13
15678;BME280;7939;50.814;6.368;2023-07-24T03:40:59;98755.69;;;22.35;59.70
15678;BME280;7939;50.814;6.368;2023-07-24T03:43:28;98754.97;;;22.33;59.77
15678;BME280;7939;50.814;6.368;2023-07-24T03:45:54;98740.16;;;22.33;60.10
15678;BME280;7939;50.814;6.368;2023-07-24T03:48:21;98745.38;;;22.33;60.05
15678;BME280;7939;50.814;6.368;2023-07-24T03:50:49;98735.91;;;22.32;59.80
15678;BME280;7939;50.814;6.368;2023-07-24T03:53:16;98728.09;;;22.32;59.87
15678;BME280;7939;50.814;6.368;2023-07-24T03:55:43;98735.91;;;22.32;59.61
15678;BME280;7939;50.814;6.368;2023-07-24T03:58:09;98740.28;;;22.32;59.83
15678;BME280;7939;50.814;6.368;2023-07-24T04:00:37;98748.16;;;22.30;59.82
15678;BME280;7939;50.814;6.368;2023-07-24T04:03:04;98744.72;;;22.30;59.46
15678;BME280;7939;50.814;6.368;2023-07-24T04:05:31;98737.84;;;22.29;59.57
15678;BME280;7939;50.814;6.368;2023-07-24T04:07:57;98731.81;;;22.28;59.74
15678;BME280;7939;50.814;6.368;2023-07-24T04:10:24;98742.22;;;22.28;59.67
15678;BME280;7939;50.814;6.368;2023-07-24T04:12:51;98738.78;;;22.28;59.93
15678;BME280;7939;50.814;6.368;2023-07-24T04:15:18;98719.75;;;22.27;59.88
15678;BME280;7939;50.814;6.368;2023-07-24T04:17:46;98724.94;;;22.27;59.82
15678;BME280;7939;50.814;6.368;2023-07-24T04:20:12;98725.78;;;22.28;59.73
15678;BME280;7939;50.814;6.368;2023-07-24T04:22:39;98734.41;;;22.28;59.60
15678;BME280;7939;50.814;6.368;2023-07-24T04:25:06;98740.66;;;22.26;59.62
15678;BME280;7939;50.814;6.368;2023-07-24T04:27:34;98738.91;;;22.26;59.79
15678;BME280;7939;50.814;6.368;2023-07-24T04:30:00;98736.38;;;22.25;59.62
15678;BME280;7939;50.814;6.368;2023-07-24T04:32:27;98751.09;;;22.26;59.48
15678;BME280;7939;50.814;6.368;2023-07-24T04:34:55;98738.16;;;22.24;59.65
15678;BME280;7939;50.814;6.368;2023-07-24T04:37:21;98743.34;;;22.24;59.49
15678;BME280;7939;50.814;6.368;2023-07-24T04:39:48;98751.16;;;22.24;59.88
15678;BME280;7939;50.814;6.368;2023-07-24T04:42:15;98758.25;;;22.22;59.56
15678;BME280;7939;50.814;6.368;2023-07-24T04:44:41;98774.59;;;22.24;59.73
15678;BME280;7939;50.814;6.368;2023-07-24T04:47:08;98776.56;;;22.21;59.91
15678;BME280;7939;50.814;6.368;2023-07-24T04:49:34;98773.13;;;22.20;59.76
15678;BME280;7939;50.814;6.368;2023-07-24T04:52:03;98771.25;;;22.22;59.82
15678;BME280;7939;50.814;6.368;2023-07-24T04:54:30;98770.41;;;22.22;59.85
15678;BME280;7939;50.814;6.368;2023-07-24T04:56:56;98778.34;;;22.20;59.79
15678;BME280;7939;50.814;6.368;2023-07-24T04:59:23;98777.50;;;22.20;60.09
15678;BME280;7939;50.814;6.368;2023-07-24T05:01:50;98763.66;;;22.19;60.06
15678;BME280;7939;50.814;6.368;2023-07-24T05:04:16;98766.25;;;22.19;59.95
15678;BME280;7939;50.814;6.368;2023-07-24T05:06:43;98772.28;;;22.20;59.86
15678;BME280;7939;50.814;6.368;2023-07-24T05:09:11;98769.69;;;22.20;59.74
15678;BME280;7939;50.814;6.368;2023-07-24T05:11:37;98773.31;;;22.17;60.17
15678;BME280;7939;50.814;6.368;2023-07-24T05:14:04;98780.38;;;22.15;60.27
15678;BME280;7939;50.814;6.368;2023-07-24T05:16:30;98775.91;;;22.17;59.96
15678;BME280;7939;50.814;6.368;2023-07-24T05:18:57;98779.44;;;22.16;60.56
15678;BME280;7939;50.814;6.368;2023-07-24T05:21:24;98777.78;;;22.15;60.06
15678;BME280;7939;50.814;6.368;2023-07-24T05:23:50;98787.25;;;22.16;60.45
15678;BME280;7939;50.814;6.368;2023-07-24T05:26:18;98779.56;;;22.15;60.48
15678;BME280;7939;50.814;6.368;2023-07-24T05:28:45;98782.16;;;22.15;60.64
15678;BME280;7939;50.814;6.368;2023-07-24T05:31:11;98789.84;;;22.16;60.62
15678;BME280;7939;50.814;6.368;2023-07-24T05:33:38;98793.28;;;22.17;60.70
15678;BME280;7939;50.814;6.368;2023-07-24T05:36:04;98812.44;;;22.16;60.48
15678;BME280;7939;50.814;6.368;2023-07-24T05:38:31;98798.50;;;22.17;60.39
15678;BME280;7939;50.814;6.368;2023-07-24T05:40:59;98815.78;;;22.18;60.33
15678;BME280;7939;50.814;6.368;2023-07-24T05:43:28;98814.13;;;22.17;60.56
15678;BME280;7939;50.814;6.368;2023-07-24T05:45:56;98803.69;;;22.17;60.64
15678;BME280;7939;50.814;6.368;2023-07-24T05:48:23;98809.84;;;22.16;60.50
15678;BME280;7939;50.814;6.368;2023-07-24T05:50:50;98812.34;;;22.17;60.45
15678;BME280;7939;50.814;6.368;2023-07-24T05:53:17;98815.78;;;22.18;60.34
15678;BME280;7939;50.814;6.368;2023-07-24T05:55:44;98802.78;;;22.18;60.53
15678;BME280;7939;50.814;6.368;2023-07-24T05:58:10;98807.97;;;22.18;60.56
15678;BME280;7939;50.814;6.368;2023-07-24T06:00:38;98811.50;;;22.17;60.46
15678;BME280;7939;50.814;6.368;2023-07-24T06:03:05;98807.91;;;22.19;60.36
15678;BME280;7939;50.814;6.368;2023-07-24T06:05:31;98806.19;;;22.18;60.12
15678;BME280;7939;50.814;6.368;2023-07-24T06:07:58;98802.69;;;22.19;60.32
15678;BME280;7939;50.814;6.368;2023-07-24T06:10:25;98807.03;;;22.19;60.23
15678;BME280;7939;50.814;6.368;2023-07-24T06:12:52;98806.19;;;22.18;60.40
15678;BME280;7939;50.814;6.368;2023-07-24T06:15:18;98801.75;;;22.20;59.98
15678;BME280;7939;50.814;6.368;2023-07-24T06:17:46;98813.94;;;22.20;60.17
15678;BME280;7939;50.814;6.368;2023-07-24T06:20:13;98811.34;;;22.20;60.09
15678;BME280;7939;50.814;6.368;2023-07-24T06:22:40;98811.34;;;22.20;59.96
15678;BME280;7939;50.814;6.368;2023-07-24T06:25:07;98815.59;;;22.21;59.91
15678;BME280;7939;50.814;6.368;2023-07-24T06:27:34;98809.56;;;22.20;59.78
15678;BME280;7939;50.814;6.368;2023-07-24T06:30:01;98822.47;;;22.22;59.64
15678;BME280;7939;50.814;6.368;2023-07-24T06:32:28;98814.78;;;22.20;59.69
15678;BME280;7939;50.814;6.368;2023-07-24T06:34:56;98811.34;;;22.20;59.54
15678;BME280;7939;50.814;6.368;2023-07-24T06:37:23;98813.09;;;22.19;59.69
15678;BME280;7939;50.814;6.368;2023-07-24T06:39:49;98813.00;;;22.21;59.64
15678;BME280;7939;50.814;6.368;2023-07-24T06:42:16;98806.84;;;22.22;59.47
15678;BME280;7939;50.814;6.368;2023-07-24T06:44:42;98810.28;;;22.22;59.54
15678;BME280;7939;50.814;6.368;2023-07-24T06:47:09;98795.63;;;22.21;59.73
15678;BME280;7939;50.814;6.368;2023-07-24T06:49:35;98806.84;;;22.22;59.68
15678;BME280;7939;50.814;6.368;2023-07-24T06:52:04;98799.78;;;22.24;59.77
15678;BME280;7939;50.814;6.368;2023-07-24T06:54:31;98802.38;;;22.24;59.50
15678;BME280;7939;50.814;6.368;2023-07-24T06:56:57;98793.63;;;22.25;59.72
15678;BME280;7939;50.814;6.368;2023-07-24T06:59:24;98791.03;;;22.25;59.52
15678;BME280;7939;50.814;6.368;2023-07-24T07:01:50;98793.56;;;22.26;59.60
15678;BME280;7939;50.814;6.368;2023-07-24T07:04:17;98797.09;;;22.25;59.71
15678;BME280;7939;50.814;6.368;2023-07-24T07:06:43;98790.19;;;22.24;59.71
15678;BME280;7939;50.814;6.368;2023-07-24T07:09:11;98792.72;;;22.26;59.58
15678;BME280;7939;50.814;6.368;2023-07-24T07:11:38;98787.53;;;22.26;59.62
15678;BME280;7939;50.814;6.368;2023-07-24T07:14:05;98777.94;;;22.26;59.23
15678;BME280;7939;50.814;6.368;2023-07-24T07:16:34;98782.22;;;22.27;59.40
15678;BME280;7939;50.814;6.368;2023-07-24T07:19:00;98774.28;;;22.29;59.42
15678;BME280;7939;50.814;6.368;2023-07-24T07:21:27;98779.50;;;22.29;59.15
15678;BME280;7939;50.814;6.368;2023-07-24T07:23:54;98767.31;;;22.29;59.28
15678;BME280;7939;50.814;6.368;2023-07-24T07:26:22;98770.69;;;22.31;59.28
15678;BME280;7939;50.814;6.368;2023-07-24T07:28:49;98774.19;;;22.30;58.90
15678;BME280;7939;50.814;6.368;2023-07-24T07:31:16;98772.34;;;22.32;59.24
15678;BME280;7939;50.814;6.368;2023-07-24T07:33:42;98773.19;;;22.33;59.03
15678;BME280;7939;50.814;6.368;2023-07-24T07:36:09;98782.53;;;22.35;58.91
15678;BME280;7939;50.814;6.368;2023-07-24T07:38:35;98778.16;;;22.36;59.23
15678;BME280;7939;50.814;6.368;2023-07-24T07:41:04;98769.53;;;22.35;59.09
15678;BME280;7939;50.814;6.368;2023-07-24T07:43:32;98769.41;;;22.37;58.91
15678;BME280;7939;50.814;6.368;2023-07-24T07:46:00;98777.63;;;22.31;59.27
15678;BME280;7939;50.814;6.368;2023-07-24T07:48:26;98784.31;;;22.35;59.10
15678;BME280;7939;50.814;6.368;2023-07-24T07:50:53;98782.38;;;22.39;58.90
15678;BME280;7939;50.814;6.368;2023-07-24T07:53:20;98774.56;;;22.39;59.07
15678;BME280;7939;50.814;6.368;2023-07-24T07:55:55;98792.78;;;22.39;59.02
15678;BME280;7939;50.814;6.368;2023-07-24T07:58:22;98781.31;;;22.41;58.84
15678;BME280;7939;50.814;6.368;2023-07-24T08:00:50;98797.03;;;22.40;59.16
15678;BME280;7939;50.814;6.368;2023-07-24T08:03:17;98781.75;;;22.48;58.77
15678;BME280;7939;50.814;6.368;2023-07-24T08:05:43;98779.69;;;22.53;58.64
15678;BME280;7939;50.814;6.368;2023-07-24T08:08:10;98777.63;;;22.58;58.52
15678;BME280;7939;50.814;6.368;2023-07-24T08:10:37;98771.38;;;22.60;58.51
15678;BME280;7939;50.814;6.368;2023-07-24T08:13:03;98766.06;;;22.62;57.93
15678;BME280;7939;50.814;6.368;2023-07-24T08:15:34;98761.59;;;22.64;58.24
15678;BME280;7939;50.814;6.368;2023-07-24T08:18:02;98756.06;;;22.69;57.97
15678;BME280;7939;50.814;6.368;2023-07-24T08:20:29;98743.03;;;22.69;57.93
15678;BME280;7939;50.814;6.368;2023-07-24T08:22:55;98733.28;;;22.72;57.91
15678;BME280;7939;50.814;6.368;2023-07-24T08:25:22;98726.28;;;22.73;58.13
15678;BME280;7939;50.814;6.368;2023-07-24T08:27:48;98727.13;;;22.73;57.95
15678;BME280;7939;50.814;6.368;2023-07-24T08:30:15;98733.91;;;22.76;57.75
15678;BME280;7939;50.814;6.368;2023-07-24T08:32:42;98729.44;;;22.78;57.23
15678;BME280;7939;50.814;6.368;2023-07-24T08:35:10;98718.91;;;22.79;57.49
15678;BME280;7939;50.814;6.368;2023-07-24T08:37:36;98724.00;;;22.81;57.14
15678;BME280;7939;50.814;6.368;2023-07-24T08:40:03;98725.59;;;22.83;57.33
15678;BME280;7939;50.814;6.368;2023-07-24T08:42:31;98739.53;;;22.82;57.28
15678;BME280;7939;50.814;6.368;2023-07-24T08:44:58;98729.13;;;22.82;57.21
15678;BME280;7939;50.814;6.368;2023-07-24T08:47:25;98716.00;;;22.84;56.85
15678;BME280;7939;50.814;6.368;2023-07-24T08:49:53;98724.53;;;22.86;57.17
15678;BME280;7939;50.814;6.368;2023-07-24T08:52:22;98728.81;;;22.87;56.97
15678;BME280;7939;50.814;6.368;2023-07-24T08:54:49;98731.13;;;22.92;56.95
15678;BME280;7939;50.814;6.368;2023-07-24T08:57:16;98733.63;;;22.93;57.14
15678;BME280;7939;50.814;6.368;2023-07-24T08:59:43;98716.03;;;22.97;57.04
15678;BME280;7939;50.814;6.368;2023-07-24T09:02:10;98727.16;;;22.99;56.68
15678;BME280;7939;50.814;6.368;2023-07-24T09:04:36;98732.38;;;22.99;56.65
15678;BME280;7939;50.814;6.368;2023-07-24T09:07:03;98728.84;;;23.00;56.60
15678;BME280;7939;50.814;6.368;2023-07-24T09:09:31;98717.50;;;23.01;57.14
15678;BME280;7939;50.814;6.368;2023-07-24T09:11:58;98713.00;;;23.03;56.21
15678;BME280;7939;50.814;6.368;2023-07-24T09:14:26;98702.34;;;23.06;56.59
15678;BME280;7939;50.814;6.368;2023-07-24T09:17:03;98702.28;;;23.07;56.24
15678;BME280;7939;50.814;6.368;2023-07-24T09:19:30;98695.19;;;23.09;56.55
15678;BME280;7939;50.814;6.368;2023-07-24T09:22:07;98694.34;;;23.09;56.70
15678;BME280;7939;50.814;6.368;2023-07-24T09:24:35;98699.34;;;23.12;56.17
15678;BME280;7939;50.814;6.368;2023-07-24T09:27:05;98692.34;;;23.12;56.11
15678;BME280;7939;50.814;6.368;2023-07-24T09:29:33;98699.25;;;23.13;56.16
15678;BME280;7939;50.814;6.368;2023-07-24T09:31:59;98689.53;;;23.15;56.06
15678;BME280;7939;50.814;6.368;2023-07-24T09:34:26;98687.66;;;23.18;56.58
15678;BME280;7939;50.814;6.368;2023-07-24T09:36:53;98686.63;;;23.20;56.10
15678;BME280;7939;50.814;6.368;2023-07-24T09:39:23;98675.25;;;23.21;56.11
15678;BME280;7939;50.814;6.368;2023-07-24T09:41:51;98671.69;;;23.22;56.18
15678;BME280;7939;50.814;6.368;2023-07-24T09:44:18;98668.16;;;23.23;56.18
15678;BME280;7939;50.814;6.368;2023-07-24T09:46:45;98661.16;;;23.24;56.17
15678;BME280;7939;50.814;6.368;2023-07-24T09:49:12;98655.94;;;23.24;56.63
15678;BME280;7939;50.814;6.368;2023-07-24T09:51:41;98651.56;;;23.24;56.67
15678;BME280;7939;50.814;6.368;2023-07-24T09:54:14;98653.22;;;23.25;56.64
15678;BME280;7939;50.814;6.368;2023-07-24T09:56:42;98633.22;;;23.26;56.80
15678;BME280;7939;50.814;6.368;2023-07-24T09:59:12;98630.72;;;23.24;57.11
15678;BME280;7939;50.814;6.368;2023-07-24T10:01:39;98632.16;;;23.28;56.74
15678;BME280;7939;50.814;6.368;2023-07-24T10:04:07;98633.00;;;23.29;56.98
15678;BME280;7939;50.814;6.368;2023-07-24T10:06:34;98620.09;;;23.27;56.90
15678;BME280;7939;50.814;6.368;2023-07-24T10:09:01;98619.25;;;23.27;57.14
15678;BME280;7939;50.814;6.368;2023-07-24T10:11:29;98620.78;;;23.29;57.35
15678;BME280;7939;50.814;6.368;2023-07-24T10:13:56;98618.91;;;23.31;57.10
15678;BME280;7939;50.814;6.368;2023-07-24T10:16:24;98617.13;;;23.32;56.98
15678;BME280;7939;50.814;6.368;2023-07-24T10:18:51;98614.44;;;23.33;57.40
15678;BME280;7939;50.814;6.368;2023-07-24T10:21:17;98614.31;;;23.35;57.07
15678;BME280;7939;50.814;6.368;2023-07-24T10:23:45;98610.88;;;23.34;57.24
15678;BME280;7939;50.814;6.368;2023-07-24T10:26:12;98611.59;;;23.36;57.08
15678;BME280;7939;50.814;6.368;2023-07-24T10:28:40;98602.09;;;23.35;57.15
15678;BME280;7939;50.814;6.368;2023-07-24T10:31:18;98589.91;;;23.36;57.27
15678;BME280;7939;50.814;6.368;2023-07-24T10:33:46;98585.63;;;23.35;57.15
15678;BME280;7939;50.814;6.368;2023-07-24T10:36:17;98588.00;;;23.38;57.09
15678;BME280;7939;50.814;6.368;2023-07-24T10:38:45;98576.53;;;23.40;57.27
15678;BME280;7939;50.814;6.368;2023-07-24T10:41:12;98573.00;;;23.41;57.21
15678;BME280;7939;50.814;6.368;2023-07-24T10:43:43;98558.88;;;23.44;57.17
15678;BME280;7939;50.814;6.368;2023-07-24T10:46:10;98567.66;;;23.43;57.29
15678;BME280;7939;50.814;6.368;2023-07-24T10:48:37;98557.16;;;23.45;57.38
15678;BME280;7939;50.814;6.368;2023-07-24T10:51:09;98552.00;;;23.43;56.94
15678;BME280;7939;50.814;6.368;2023-07-24T10:53:42;98546.72;;;23.45;57.01
15678;BME280;7939;50.814;6.368;2023-07-24T10:56:09;98556.53;;;23.41;57.89
15678;BME280;7939;50.814;6.368;2023-07-24T10:58:35;98597.16;;;23.43;59.41
15678;BME280;7939;50.814;6.368;2023-07-24T11:01:03;98636.41;;;23.42;59.71
15678;BME280;7939;50.814;6.368;2023-07-24T11:03:31;98639.97;;;23.41;59.82
15678;BME280;7939;50.814;6.368;2023-07-24T11:05:58;98626.53;;;23.34;59.73
15678;BME280;7939;50.814;6.368;2023-07-24T11:08:26;98634.34;;;23.34;59.53
15678;BME280;7939;50.814;6.368;2023-07-24T11:10:54;98642.28;;;23.33;59.94
15678;BME280;7939;50.814;6.368;2023-07-24T11:13:23;98632.44;;;23.36;59.89
15678;BME280;7939;50.814;6.368;2023-07-24T11:15:50;98629.00;;;23.36;61.72
15678;BME280;7939;50.814;6.368;2023-07-24T11:18:18;98629.84;;;23.36;63.10
15678;BME280;7939;50.814;6.368;2023-07-24T11:20:47;98629.53;;;23.41;61.88
15678;BME280;7939;50.814;6.368;2023-07-24T11:23:15;98629.41;;;23.42;63.07
15678;BME280;7939;50.814;6.368;2023-07-24T11:25:43;98644.09;;;23.43;63.41
15678;BME280;7939;50.814;6.368;2023-07-24T11:28:12;98645.06;;;23.42;65.84
15678;BME280;7939;50.814;6.368;2023-07-24T11:30:39;98641.41;;;23.45;64.97
15678;BME280;7939;50.814;6.368;2023-07-24T11:33:08;98621.59;;;23.42;64.30
15678;BME280;7939;50.814;6.368;2023-07-24T11:35:35;98653.81;;;23.41;64.43
15678;BME280;7939;50.814;6.368;2023-07-24T11:38:04;98666.97;;;23.40;63.96
15678;BME280;7939;50.814;6.368;2023-07-24T11:40:32;98654.16;;;23.37;63.47
15678;BME280;7939;50.814;6.368;2023-07-24T11:43:00;98615.16;;;23.35;63.59
15678;BME280;7939;50.814;6.368;2023-07-24T11:45:27;98609.22;;;23.33;63.98
15678;BME280;7939;50.814;6.368;2023-07-24T11:47:53;98613.50;;;23.34;64.46
15678;BME280;7939;50.814;6.368;2023-07-24T11:50:22;98622.03;;;23.36;64.15
15678;BME280;7939;50.814;6.368;2023-07-24T11:52:50;98631.50;;;23.37;63.94
15678;BME280;7939;50.814;6.368;2023-07-24T11:55:18;98635.81;;;23.38;64.22
15678;BME280;7939;50.814;6.368;2023-07-24T11:57:56;98635.38;;;23.45;64.84
15678;BME280;7939;50.814;6.368;2023-07-24T12:00:24;98627.31;;;23.48;64.52
15678;BME280;7939;50.814;6.368;2023-07-24T12:02:52;98627.06;;;23.51;65.09
15678;BME280;7939;50.814;6.368;2023-07-24T12:05:18;98623.63;;;23.50;64.45
15678;BME280;7939;50.814;6.368;2023-07-24T12:07:45;98621.53;;;23.55;64.16
15678;BME280;7939;50.814;6.368;2023-07-24T12:10:13;98618.63;;;23.60;64.61
15678;BME280;7939;50.814;6.368;2023-07-24T12:12:43;98608.72;;;23.65;64.26
15678;BME280;7939;50.814;6.368;2023-07-24T12:15:10;98607.66;;;23.67;64.15
15678;BME280;7939;50.814;6.368;2023-07-24T12:17:39;98620.09;;;23.64;64.37
15678;BME280;7939;50.814;6.368;2023-07-24T12:20:07;98629.69;;;23.63;63.24
15678;BME280;7939;50.814;6.368;2023-07-24T12:22:35;98622.88;;;23.61;63.21
15678;BME280;7939;50.814;6.368;2023-07-24T12:25:01;98614.53;;;23.56;62.38
15678;BME280;7939;50.814;6.368;2023-07-24T12:27:28;98616.44;;;23.54;62.32
15678;BME280;7939;50.814;6.368;2023-07-24T12:29:55;98606.00;;;23.54;62.16
15678;BME280;7939;50.814;6.368;2023-07-24T12:32:21;98605.50;;;23.49;62.23
15678;BME280;7939;50.814;6.368;2023-07-24T12:34:51;98599.47;;;23.48;62.76
15678;BME280;7939;50.814;6.368;2023-07-24T12:37:18;98594.97;;;23.50;62.57
15678;BME280;7939;50.814;6.368;2023-07-24T12:39:45;98593.19;;;23.51;62.57
15678;BME280;7939;50.814;6.368;2023-07-24T12:42:13;98593.09;;;23.52;62.49
15678;BME280;7939;50.814;6.368;2023-07-24T12:44:41;98593.09;;;23.52;62.49
15678;BME280;7939;50.814;6.368;2023-07-24T12:47:08;98581.72;;;23.53;62.27
15678;BME280;7939;50.814;6.368;2023-07-24T12:49:34;98591.00;;;23.57;62.60
15678;BME280;7939;50.814;6.368;2023-07-24T12:52:03;98591.69;;;23.59;62.58
15678;BME280;7939;50.814;6.368;2023-07-24T12:54:31;98589.22;;;23.58;62.32
15678;BME280;7939;50.814;6.368;2023-07-24T12:56:58;98573.66;;;23.56;61.76
15678;BME280;7939;50.814;6.368;2023-07-24T12:59:24;98573.88;;;23.53;62.04
15678;BME280;7939;50.814;6.368;2023-07-24T13:01:51;98589.28;;;23.56;61.87
15678;BME280;7939;50.814;6.368;2023-07-24T13:04:18;98593.81;;;23.54;62.24
15678;BME280;7939;50.814;6.368;2023-07-24T13:06:45;98591.81;;;23.58;62.45
15678;BME280;7939;50.814;6.368;2023-07-24T13:09:13;98609.13;;;23.59;62.19
15678;BME280;7939;50.814;6.368;2023-07-24T13:11:40;98625.59;;;23.59;62.00